CheckWX is a tool to help pilots better visualize weather data.  It is not intended as a substitute for an official pre-flight weather briefing.

21:36:37 UTC

KFWS METAR
Fort Worth Spinks Airport
Fort Worth, Texas, USA
Current

48 mins ago

KFWS 082049Z 26012G17KT 10SM CLR 33/13 A2980
Observed
Apr-8 @ 20:49 UTC
Wind
  • 260° at 12 KTS
  • Gusting to 17 KTS
Visibility
Flight Rules
VFR
Cloud Levels
  • Clear skies
Temperature
33°C / 91°F
Dewpoint
13°C / 55°F
Humidity
30%
Altimeter
29.8" Hg
Pressure
1009.12 hPa
Previous

2 hours ago

KFWS 081954Z 22015KT 10SM CLR 33/14 A2982
Observed
Apr-8 @ 19:54 UTC
Wind
  • 220° at 15 KTS
Visibility
Flight Rules
VFR
Cloud Levels
  • Clear skies
Temperature
33°C / 91°F
Dewpoint
14°C / 57°F
Humidity
32%
Altimeter
29.82" Hg
Pressure
1009.82 hPa
Previous

3 hours ago

KFWS 081852Z 24016G20KT 10SM CLR 32/15 A2984
Observed
Apr-8 @ 18:52 UTC
Wind
  • 240° at 16 KTS
  • Gusting to 20 KTS
Visibility
Flight Rules
VFR
Cloud Levels
  • Clear skies
Temperature
32°C / 90°F
Dewpoint
15°C / 59°F
Humidity
36%
Altimeter
29.84" Hg
Pressure
1010.52 hPa